Lewisburg, PA

8:02 AM EST on February 28, 2015 (GMT -0500)
RAWS GARDEN HOLLOW PA US | Change Station
CLOSE
Current Station
Personal Weather Station
Location: Laurelton, PA
Elevation: 1649 ft
Nearby Weather Stations

Elev 1649 ft 41.03 °N, 77.17 °W | Updated 54 minutes ago

Partly Cloudy
Partly Cloudy
0 °F
Feels Like 0 °F
N
2
Wind Variable Wind from NW
Gusts 6.0 mph

Today
High -- | Low -- °F
--% Chance of Precip.
Yesterday
High -- | Low -- °F
Precip. -- in
6:44 AM 5:58 PM
Waxing Gibbous, 77% visible
Pressure 30.85 in
Visibility 10.0 miles
Clouds Clear
Windchill 0 °F
Dew Point -8 °F
Humidity 67%
Rainfall 0.00 in
Snow Depth Not available.
UV 1 out of 12
Pollen .40 out of 12
Air Quality Not available.
Flu Activity Not available.
METAR KSEG 281253Z AUTO 00000KT 10SM CLR M16/M19 A3082 RMK AO2 SLP446 T11561189

More Conditions Fewer Conditions

Pressure 30.85 in
Visibility 10.0 miles
Clouds Clear
Windchill 0 °F
Dew Point -8 °F
Humidity 67%
Rainfall 0.00 in
Snow Depth Not available.
UV 1 out of 12
Pollen .40 out of 12
Air Quality Not available.
Flu Activity Not available.
METAR KSEG 281253Z AUTO 00000KT 10SM CLR M16/M19 A3082 RMK AO2 SLP446 T11561189

More Conditions Fewer Conditions

10-Day Weather Forecast

Almanac

Astronomy

Feb. 28, 2015 Rise Set
Actual Time
Civil Twilight
Nautical Twilight
Astronomical Twilight
Moon
Length of Visible Light
Length of Day
Tomorrow will be .
, % of the Moon is Illuminated

Today's Extremes

State Highs State Lows

Community

WunderPhotos

Upload Photos

1,801,002 photos uploaded!

WunderBlogs® & News

Nearby

Air Quality

  Air Quality AQ Index Pollutant
Not available.

Snow Depth

Station Depth Elevation

Earthquake Activity

City Distance Mag. Time & Date
Minimum magnitude displayed is 2.5.

Coastal Water Temperatures

Place Temperature

Nearby Weather Stations